Bolo, Illinois
Current Conditions -  °F | °C
As of 12:35 PM on Wednesday 26 Nov 2014 (Local Time) from KENL Reporting Station
Scattered Clouds Scattered Clouds  
Wind Chill: 30°   Ceiling: Unl
Heat Index: 36°   Visibility: 10mi
Dew Point: 28°   Wind: 7mph
Humidity: 73%   Direction: 110°ESE
Pressure: 30.01"   Gusts: NA
Location:  38.2877°N, 89.2699°W
Report Text: KENL 261835Z AUTO 11006KT 10SM SCT050 02/M02 A3001 RMK AO2 T00211023
Loading
Personal Weather Stations






























Interactive Weather Map New forecast layout! Learn more

10-Day Weather Forecast

Advertisements
Track Severe Weather on mobile